Flight Track Log - Related Links

Times and Time Zones

All times are in EDT time to prevent confusion due to time zone crossing. See the DAL949 flight status page for this flight to view local times or setup timezone preferences in your user account.

Time Position Orientation Groundspeed Altitude Reporting Facility
EDT Latitude Longitude Course Direction KTS MPH feet Rate Location/Type
Thu 08:54:29 AM 44.8807 -93.1927 121° Southeast 173 199 1,300  Level FlightAware ADS-B (KSGS)
Thu 08:54:39 AM 44.8776 -93.1830 107° East 166 191 2,000 3,600 Climbing FlightAware ADS-B (KSGS)
Thu 08:54:44 AM 44.8769 -93.1775 98° East 169 194 2,200 1,500 Climbing FlightAware ADS-B (KSGS)
Thu 08:54:59 AM 44.8750 -93.1601 99° East 191 220 2,500 1,200 Climbing FlightAware ADS-B (KSGS)
Thu 08:55:14 AM 44.8723 -93.1402 101° East 217 250 2,800 1,161 Climbing FlightAware ADS-B (KSGS)
Thu 08:55:30 AM 44.8691 -93.1178 101° East 238 274 3,100 1,800 Climbing FlightAware ADS-B (KSGS)
Thu 08:55:44 AM 44.8672 -93.0938 88° East 257 296 3,700 3,200 Climbing FlightAware ADS-B (KSGS)
Thu 08:55:45 AM 44.8673 -93.0922 83° East 260 299 3,900 2,000 Climbing FlightAware ADS-B (ESMS / MMX)
Thu 08:55:50 AM 44.8683 -93.0854 78° East 262 302 3,900 1,333 Level FlightAware ADS-B (KSGS)
Thu 08:55:54 AM 44.8703 -93.0776 68° East 268 308 4,100 1,200 Climbing FlightAware ADS-B (KSGS)
Thu 08:55:55 AM 44.8688 -93.0827 74° East 264 304 4,000 2,400 Descending FlightAware ADS-B (KLVN)
Thu 08:56:04 AM 44.8783 -93.0626 45° Northeast 278 320 4,500 3,429 Climbing FlightAware ADS-B (KSGS)
Thu 08:56:09 AM 44.8833 -93.0577 33° Northeast 281 323 4,800 3,000 Climbing FlightAware ADS-B (KSGS)
Thu 08:56:14 AM 44.8888 -93.0543 24° Northeast 282 325 5,000 2,727 Climbing FlightAware ADS-B (KSGS)
Thu 08:56:20 AM 44.8960 -93.0520 11° North 284 327 5,300 3,000 Climbing FlightAware ADS-B (KSGS)
Thu 08:56:24 AM 44.9025 -93.0512 North 287 330 5,500 3,120 Climbing FlightAware ADS-B (KSGS)
Thu 08:56:45 AM 44.9293 -93.0505 North 289 333 6,600 3,545 Climbing FlightAware ADS-B (KSGS)
Thu 08:56:46 AM 44.9299 -93.0505 359° North 287 330 6,800 4,500 Climbing FlightAware ADS-B (ESMS / MMX)
Thu 08:56:49 AM 44.9358 -93.0510 356° North 284 327 6,900 3,000 Climbing FlightAware ADS-B (KSGS)
Thu 08:56:54 AM 44.9424 -93.0529 348° North 281 323 7,200 3,000 Climbing FlightAware ADS-B (KSGS)
Thu 08:56:59 AM 44.9487 -93.0561 339° North 279 321 7,400 2,400 Climbing FlightAware ADS-B (KSGS)
Thu 08:57:04 AM 44.9540 -93.0603 331° Northwest 279 321 7,600 2,727 Climbing FlightAware ADS-B (KSGS)
Thu 08:57:10 AM 44.9592 -93.0660 323° Northwest 277 319 7,900 3,273 Climbing FlightAware ADS-B (KSGS)
Thu 08:57:15 AM 44.9637 -93.0729 311° West 271 312 8,200 3,600 Climbing FlightAware ADS-B (KSGS)
Thu 08:57:25 AM 44.9712 -93.0879 305° West 270 311 8,800 3,000 Climbing FlightAware ADS-B (ESMS / MMX)
Thu 08:57:29 AM 44.9738 -93.0947 299° West 270 311 8,900 2,000 Climbing FlightAware ADS-B (KSGS)
Thu 08:57:34 AM 44.9762 -93.1027 293° West 272 313 9,100 2,182 Climbing FlightAware ADS-B (KSGS)
Thu 08:57:40 AM 44.9782 -93.1114 288° West 272 313 9,300 2,364 Climbing FlightAware ADS-B (KSGS)
Thu 08:58:07 AM 44.9853 -93.1612 278° West 286 329 10,400 2,276 Climbing FlightAware ADS-B (ESMS / MMX)
Thu 08:58:09 AM 44.9856 -93.1638 279° West 287 330 10,400 909 Level FlightAware ADS-B (KSGS)
Thu 08:58:40 AM 44.9911 -93.2251 278° West 324 373 10,900 1,105 Climbing FlightAware ADS-B (KSGS)
Thu 08:58:47 AM 44.9919 -93.2347 277° West 335 386 11,100 1,034 Climbing FlightAware ADS-B (ESMS / MMX)
Thu 08:59:09 AM 44.9967 -93.2909 277° West 356 410 11,400 1,846 Climbing FlightAware ADS-B (KSGS)
Thu 08:59:39 AM 45.0025 -93.3617 277° West 363 418 12,700 2,462 Climbing FlightAware ADS-B (KSGS)
Thu 08:59:48 AM 45.0042 -93.3819 277° West 364 419 13,000 2,400 Climbing FlightAware ADS-B (ESMS / MMX)
Thu 09:00:09 AM 45.0084 -93.4319 277° West 366 421 13,900 2,700 Climbing FlightAware ADS-B (KSGS)
Thu 09:00:28 AM 45.0119 -93.4756 276° West 366 421 14,800 2,710 Climbing FlightAware ADS-B (ESMS / MMX)
Thu 09:00:40 AM 45.0142 -93.5043 277° West 366 421 15,300 2,400 Climbing FlightAware ADS-B (KSGS)
Thu 09:01:08 AM 45.0193 -93.5676 277° West 368 423 16,400 2,276 Climbing FlightAware ADS-B (ESMS / MMX)
Thu 09:01:09 AM 45.0199 -93.5743 277° West 368 423 16,400 2,516 Level FlightAware ADS-B (KSGS)
Thu 09:01:39 AM 45.0257 -93.6460 277° West 367 422 17,700 2,615 Climbing FlightAware ADS-B (KSGS)
Thu 09:01:48 AM 45.0270 -93.6631 276° West 363 418 18,100 2,600 Climbing FlightAware ADS-B (ESMS / MMX)
Thu 09:02:09 AM 45.0313 -93.7175 277° West 363 418 19,000 2,550 Climbing FlightAware ADS-B (KSGS)
Thu 09:02:28 AM 45.0343 -93.7561 276° West 361 415 19,800 2,200 Climbing FlightAware ADS-B (ESMS / MMX)
Thu 09:02:39 AM 45.0368 -93.7877 277° West 364 419 20,100 1,650 Climbing FlightAware ADS-B (KSGS)
Thu 09:03:08 AM 45.0423 -93.8574 277° West 372 428 20,900 1,600 Climbing FlightAware ADS-B (ESMS / MMX)
Thu 09:03:09 AM 45.0425 -93.8598 277° West 373 429 20,900 1,548 Level FlightAware ADS-B (KSGS)
Thu 09:03:39 AM 45.0482 -93.9321 277° West 382 440 21,700 1,579 Climbing FlightAware ADS-B (KSGS)
Thu 09:03:47 AM 45.0497 -93.9510 276° West 383 441 21,900 1,400 Climbing FlightAware ADS-B (ESMS / MMX)
Thu 09:04:09 AM 45.0541 -94.0079 277° West 388 447 22,400 1,024 Climbing FlightAware ADS-B (KSGS)
Thu 09:04:28 AM 45.0578 -94.0570 276° West 400 460 22,600 600 Climbing FlightAware ADS-B (ESMS / MMX)
Thu 09:04:39 AM 45.0601 -94.0862 277° West 408 470 22,700 811 Climbing FlightAware ADS-B (KSGS)
Thu 09:05:05 AM 45.0644 -94.1427 276° West 421 484 23,100 1,217 Climbing FlightAware ADS-B (ESMS / MMX)
Thu 09:06:57 AM 45.0887 -94.4675 278° West 436 502 25,500 1,317 Climbing FlightAware ADS-B (KSGS)
Thu 09:07:08 AM 45.0920 -94.5001 278° West 436 502 25,800 1,448 Climbing FlightAware ADS-B (ESMS / MMX)
Thu 09:07:26 AM 45.0972 -94.5520 279° West 436 502 26,200 1,241 Climbing FlightAware ADS-B (KSGS)
Thu 09:08:06 AM 45.1087 -94.6654 279° West 438 504 27,000 1,200 Climbing FlightAware ADS-B (KSGS)
Thu 09:08:56 AM 45.1216 -94.7948 279° West 441 507 28,000 1,322 Climbing FlightAware ADS-B (KSGS)
Thu 09:09:05 AM 45.1255 -94.8340 278° West 439 505 28,300 1,320 Climbing FlightAware ADS-B (ESMS / MMX)
Thu 09:09:46 AM 45.1356 -94.9373 278° West 438 504 29,100 1,179 Climbing FlightAware ADS-B (ESMS / MMX)
Thu 09:10:01 AM 45.1410 -94.9930 278° West 439 505 29,400 1,029 Climbing FlightAware ADS-B (KSGS)
Thu 09:10:21 AM 45.1465 -95.0502 278° West 440 506 29,700 774 Climbing FlightAware ADS-B (ESMS / MMX)
Thu 09:10:32 AM 45.1487 -95.0734 278° West 440 506 29,800 732 Climbing FlightAware ADS-B (KSGS)
Thu 09:11:02 AM 45.1553 -95.1397 278° West 437 503 30,200 978 Climbing Minneapolis Center
Thu 09:12:04 AM 45.1714 -95.3108 278° West 439 505 31,300 1,073 Climbing Minneapolis Center
Thu 09:13:05 AM 45.1875 -95.4836 278° West 442 509 32,400 1,317 Climbing Minneapolis Center
Thu 09:14:07 AM 45.2061 -95.6853 278° West 435 501 34,000 1,366 Climbing Minneapolis Center
Thu 09:15:08 AM 45.2214 -95.8489 278° West 426 490 35,200 836 Climbing Minneapolis Center
Thu 09:16:09 AM 45.2361 -96.0114 277° West 422 486 35,700 390 Climbing Minneapolis Center
Thu 09:17:11 AM 45.2492 -96.1769 276° West 422 486 36,000 146 Climbing Minneapolis Center
Thu 09:18:12 AM 45.2636 -96.3408 277° West 422 486 36,000  Level Minneapolis Center
Thu 09:19:14 AM 45.2775 -96.5050 277° West 422 486 36,000  Level Minneapolis Center
Thu 09:20:15 AM 45.2906 -96.6675 277° West 421 484 36,000  Level Minneapolis Center
Thu 09:21:17 AM 45.3064 -96.8633 277° West 421 484 36,000  Level Minneapolis Center
Thu 09:22:19 AM 45.3200 -97.0239 277° West 418 481 36,000  Level Minneapolis Center
Thu 09:23:20 AM 45.3314 -97.1842 276° West 414 476 36,000  Level Minneapolis Center
Thu 09:24:22 AM 45.3444 -97.3397 277° West 409 471 36,000  Level Minneapolis Center
Thu 09:25:23 AM 45.3564 -97.4969 276° West 404 465 36,000  Level Minneapolis Center
Thu 09:26:25 AM 45.3681 -97.6506 276° West 401 461 36,000  Level Minneapolis Center
Thu 09:27:26 AM 45.3789 -97.8072 276° West 400 460 36,000  Level Minneapolis Center
Thu 09:28:28 AM 45.3925 -97.9950 276° West 400 460 36,000  Level Minneapolis Center
Thu 09:29:29 AM 45.4042 -98.1525 276° West 400 460 36,000  Level Minneapolis Center
Thu 09:30:31 AM 45.4136 -98.3100 275° West 400 460 36,000  Level Minneapolis Center
Thu 09:31:33 AM 45.4117 -98.4656 269° West 398 458 36,000  Level Minneapolis Center
Thu 09:32:34 AM 45.3969 -98.6200 262° West 396 456 36,000  Level Minneapolis Center
Thu 09:33:36 AM 45.3833 -98.7744 263° West 396 456 36,000  Level Minneapolis Center
Thu 09:34:37 AM 45.3689 -98.9278 262° West 396 456 36,000  Level Minneapolis Center
Thu 09:35:39 AM 45.3542 -99.0811 262° West 395 455 36,000  Level Minneapolis Center
Thu 09:36:41 AM 45.3372 -99.2639 263° West 394 453 36,000  Level Minneapolis Center
Thu 09:37:43 AM 45.3228 -99.4153 262° West 393 452 36,000  Level Minneapolis Center
Thu 09:38:44 AM 45.3078 -99.5650 262° West 391 450 36,000  Level Minneapolis Center
Thu 09:39:46 AM 45.2942 -99.7125 263° West 385 443 36,000  Level Minneapolis Center
Thu 09:40:48 AM 45.2806 -99.8589 263° West 382 440 36,000  Level Minneapolis Center
Thu 09:41:49 AM 45.2664 -100.0056 262° West 382 440 36,000  Level Minneapolis Center
Thu 09:42:51 AM 45.2489 -100.1808 262° West 382 440 36,000  Level Minneapolis Center
Thu 09:43:53 AM 45.2333 -100.3275 261° West 382 440 36,000  Level Minneapolis Center
Thu 09:44:54 AM 45.2181 -100.4747 262° West 380 437 36,000  Level Minneapolis Center
Thu 09:45:56 AM 45.2014 -100.6208 261° West 380 437 36,000  Level Minneapolis Center
Thu 09:46:57 AM 45.1856 -100.7703 262° West 380 437 36,000  Level Minneapolis Center
Thu 09:47:59 AM 45.1694 -100.9181 261° West 381 438 36,000  Level Minneapolis Center
Thu 09:49:01 AM 45.1494 -101.0944 261° West 380 437 36,000  Level Minneapolis Center
Thu 09:50:03 AM 45.1325 -101.2425 261° West 380 437 36,000  Level Minneapolis Center
Thu 09:51:04 AM 45.1169 -101.3892 262° West 380 437 36,000  Level Minneapolis Center
Thu 09:52:06 AM 45.0989 -101.5381 260° West 380 437 36,000  Level Minneapolis Center
Thu 09:53:07 AM 45.0822 -101.6864 261° West 381 438 36,000  Level Minneapolis Center
Thu 09:54:09 AM 45.0561 -101.8333 256° West 381 438 36,000  Level Minneapolis Center
Thu 09:55:11 AM 45.0250 -101.9797 253° West 384 442 36,000  Level Minneapolis Center
Thu 09:56:12 AM 44.9942 -102.1264 253° West 385 443 36,000  Level Minneapolis Center
Thu 09:58:16 AM 44.9261 -102.4542 254° West 394 453 36,000  Level Minneapolis Center
Thu 09:59:17 AM 44.8939 -102.6022 253° West 395 455 36,000  Level Minneapolis Center
Thu 10:00:25 AM 44.8619 -102.7492 253° West 396 456 36,000  Level Denver Center
Thu 10:01:27 AM 44.8242 -102.9258 253° West 395 455 36,000  Level Denver Center
Thu 10:02:28 AM 44.7925 -103.0750 253° West 396 456 36,000  Level Denver Center
Thu 10:03:30 AM 44.7600 -103.2236 253° West 396 456 36,000  Level Denver Center
Thu 10:04:32 AM 44.7253 -103.3711 252° West 397 457 36,000  Level Denver Center
Thu 10:05:33 AM 44.6931 -103.5192 253° West 397 457 36,000  Level Denver Center
Thu 10:06:35 AM 44.6569 -103.6883 253° West 396 456 36,000  Level Denver Center
Thu 10:07:36 AM 44.6244 -103.8306 252° West 397 457 36,000  Level Denver Center
Thu 10:08:38 AM 44.5922 -103.9731 252° West 399 459 36,000  Level Denver Center
Thu 10:09:40 AM 44.5536 -104.1378 252° West 400 460 36,000  Level Denver Center
Thu 10:10:42 AM 44.5217 -104.2811 253° West 402 463 36,000  Level Denver Center
Thu 10:11:44 AM 44.4833 -104.4464 252° West 404 465 36,000  Level Salt Lake Center
Thu 10:12:45 AM 44.4497 -104.5903 252° West 404 465 36,000  Level Denver Center
Thu 10:13:48 AM 44.4108 -104.7564 252° West 406 467 36,000  Level Salt Lake Center
Thu 10:14:49 AM 44.3769 -104.9014 252° West 404 465 36,000  Level Denver Center
Thu 10:15:51 AM 44.3378 -105.0669 252° West 404 465 36,000  Level Denver Center
Thu 10:16:53 AM 44.3022 -105.2119 251° West 408 470 36,000  Level Denver Center
Thu 10:17:55 AM 44.2625 -105.3806 252° West 408 470 36,000  Level Denver Center
Thu 10:18:57 AM 44.2272 -105.5233 251° West 408 470 36,000  Level Denver Center
Thu 10:19:59 AM 44.1917 -105.6700 251° West 414 476 36,000  Level Denver Center
Thu 10:21:01 AM 44.1500 -105.8386 251° West 414 476 36,000  Level Denver Center
Thu 10:22:03 AM 44.1139 -105.9853 251° West 415 478 36,000  Level Denver Center
Thu 10:23:05 AM 44.0711 -106.1547 251° West 415 478 36,000  Level Denver Center
Thu 10:24:07 AM 44.0356 -106.2967 251° West 414 476 36,000  Level Denver Center
Thu 10:25:08 AM 43.9978 -106.4444 250° West 414 476 36,000  Level Salt Lake Center
Thu 10:26:09 AM 43.9511 -106.6089 249° West 415 478 36,000  Level Salt Lake Center
Thu 10:27:13 AM 43.9058 -106.7731 249° West 414 476 36,000 -429 Level Denver Center
Thu 10:28:15 AM 43.8636 -106.9217 249° West 414 476 35,100 -823 Descending Denver Center
Thu 10:29:17 AM 43.8194 -107.0772 249° West 429 494 34,300 -541 Descending Denver Center
Thu 10:30:17 AM 43.7742 -107.2308 248° West 424 488 34,000 -148 Descending Salt Lake Center
Thu 10:31:19 AM 43.7308 -107.3836 249° West 424 488 34,000  Level Salt Lake Center
Thu 10:32:21 AM 43.6875 -107.5353 248° West 425 489 34,000  Level Salt Lake Center
Thu 10:33:23 AM 43.6442 -107.6856 248° West 424 488 34,000  Level Salt Lake Center
Thu 10:34:24 AM 43.5900 -107.8675 248° West 425 489 34,000  Level Salt Lake Center
Thu 10:35:26 AM 43.5464 -108.0189 248° West 425 489 34,000  Level Salt Lake Center
Thu 10:36:28 AM 43.5017 -108.1686 248° West 425 489 34,000  Level Salt Lake Center
Thu 10:37:30 AM 43.4575 -108.3206 248° West 425 489 34,000  Level Salt Lake Center
Thu 10:38:32 AM 43.4136 -108.4758 249° West 432 497 34,000  Level Salt Lake Center
Thu 10:39:34 AM 43.3697 -108.6319 249° West 433 498 34,000  Level Salt Lake Center
Thu 10:40:36 AM 43.3167 -108.8156 248° West 433 498 34,000  Level Salt Lake Center
Thu 10:41:38 AM 43.2733 -108.9678 249° West 432 497 34,000  Level Salt Lake Center
Thu 10:42:40 AM 43.2306 -109.1203 249° West 432 497 34,000  Level Salt Lake Center
Thu 10:43:42 AM 43.1878 -109.2689 249° West 427 491 34,000  Level Salt Lake Center
Thu 10:44:44 AM 43.1447 -109.4156 248° West 421 484 34,000  Level Salt Lake Center
Thu 10:45:46 AM 43.1008 -109.5619 248° West 419 482 34,000  Level Salt Lake Center
Thu 10:46:48 AM 43.0581 -109.7108 249° West 419 482 34,000  Level Salt Lake Center
Thu 10:47:50 AM 43.0092 -109.8703 247° West 420 483 34,000  Level Salt Lake Center
Thu 10:48:52 AM 42.9611 -110.0322 248° West 419 482 34,000  Level Salt Lake Center
Thu 10:49:54 AM 42.9189 -110.1728 248° West 419 482 34,000  Level Salt Lake Center
Thu 10:50:56 AM 42.8692 -110.3369 248° West 418 481 34,000  Level Salt Lake Center
Thu 10:51:58 AM 42.8269 -110.4761 248° West 418 481 34,000  Level Salt Lake Center
Thu 10:53:00 AM 42.7778 -110.6314 247° West 414 476 34,000  Level Salt Lake Center
Thu 10:54:02 AM 42.7336 -110.7772 248° West 414 476 34,000  Level Salt Lake Center
Thu 11:00:05 AM 42.4509 -111.6772 247° West 426 490 34,000  Level FlightAware ADS-B
Thu 11:00:35 AM 42.4279 -111.7482 247° West 418 481 34,000  Level FlightAware ADS-B
Thu 11:01:34 AM 42.3825 -111.8901 247° West 419 482 34,000  Level FlightAware ADS-B
Thu 11:02:34 AM 42.3359 -112.0349 247° West 417 480 34,000  Level FlightAware ADS-B
Thu 11:03:14 AM 42.3050 -112.1300 247° West 416 479 34,000  Level FlightAware ADS-B
Thu 11:03:45 AM 42.2809 -112.2038 247° West 414 476 34,000  Level FlightAware ADS-B (KBTF)
Thu 11:04:33 AM 42.2430 -112.3199 247° West 415 478 34,000  Level FlightAware ADS-B
Thu 11:05:04 AM 42.2195 -112.3916 247° West 416 479 34,000  Level FlightAware ADS-B (KBTF)
Thu 11:05:45 AM 42.1869 -112.4904 247° West 415 478 34,000  Level FlightAware ADS-B (KBTF)
Thu 11:06:06 AM 42.1699 -112.5402 245° Southwest 418 481 34,000  Level FlightAware ADS-B
Thu 11:06:53 AM 42.1328 -112.6496 247° West 413 475 34,000  Level FlightAware ADS-B
Thu 11:07:07 AM 42.1216 -112.6823 246° West 418 481 34,000  Level FlightAware ADS-B
Thu 11:07:46 AM 42.0900 -112.7755 247° West 413 475 34,000  Level FlightAware ADS-B (KBTF)
Thu 11:08:06 AM 42.0740 -112.8225 247° West 412 474 34,000  Level FlightAware ADS-B (KBTF)
Thu 11:08:27 AM 42.0577 -112.8707 246° West 417 480 34,000  Level FlightAware ADS-B
Thu 11:08:47 AM 42.0437 -112.9117 245° Southwest 416 479 34,000  Level FlightAware ADS-B
Thu 11:09:07 AM 42.0257 -112.9640 245° Southwest 417 480 34,000  Level FlightAware ADS-B
Thu 11:09:45 AM 41.9941 -113.0561 245° Southwest 420 483 34,000  Level FlightAware ADS-B (KBTF)
Thu 11:10:15 AM 41.9703 -113.1253 245° Southwest 423 487 34,000  Level FlightAware ADS-B
Thu 11:10:45 AM 41.9449 -113.1986 245° Southwest 430 495 34,000  Level FlightAware ADS-B (KBTF)
Thu 11:11:15 AM 41.9194 -113.2720 246° West 432 497 34,000  Level FlightAware ADS-B
Thu 11:11:46 AM 41.8930 -113.3481 245° Southwest 437 503 34,000  Level FlightAware ADS-B
Thu 11:12:26 AM 41.8591 -113.4453 246° West 437 503 34,000  Level FlightAware ADS-B (KBTF)
Thu 11:12:47 AM 41.8405 -113.4984 245° Southwest 442 509 34,000  Level FlightAware ADS-B
Thu 11:13:02 AM 41.8283 -113.5333 246° West 440 506 34,000  Level FlightAware ADS-B (KBTF)
Thu 11:13:28 AM 41.8058 -113.5981 246° West 440 506 34,000  Level FlightAware ADS-B (KBTF)
Thu 11:14:02 AM 41.7763 -113.6824 246° West 438 504 34,000  Level FlightAware ADS-B
Thu 11:14:42 AM 41.7411 -113.7823 246° West 435 501 34,000  Level FlightAware ADS-B
Thu 11:14:46 AM 41.7390 -113.7884 245° Southwest 437 503 34,000  Level FlightAware ADS-B (KBOI)
Thu 11:15:16 AM 41.7122 -113.8640 245° Southwest 435 501 34,000  Level FlightAware ADS-B (KBOI)
Thu 11:15:27 AM 41.7027 -113.8906 246° West 428 493 34,000  Level FlightAware ADS-B (KBTF)
Thu 11:15:47 AM 41.6852 -113.9396 246° West 425 489 34,000  Level FlightAware ADS-B (KBTF)
Thu 11:16:08 AM 41.6679 -113.9883 246° West 425 489 34,000  Level FlightAware ADS-B (KBTF)
Thu 11:16:16 AM 41.6608 -114.0083 245° Southwest 428 493 34,000  Level FlightAware ADS-B (KBOI)
Thu 11:16:44 AM 41.6457 -114.0507 245° Southwest 427 491 34,000  Level FlightAware ADS-B (KBOI)
Thu 11:16:48 AM 41.6340 -114.0836 245° Southwest 425 489 34,000  Level FlightAware ADS-B (KBTF)
Thu 11:17:07 AM 41.6298 -114.0953 245° Southwest 428 493 34,000  Level FlightAware ADS-B (KBOI)
Thu 11:17:48 AM 41.5819 -114.2286 245° Southwest 428 493 34,000  Level FlightAware ADS-B (KBTF)
Thu 11:18:16 AM 41.5583 -114.2943 245° Southwest 434 499 34,000  Level FlightAware ADS-B (KBOI)
Thu 11:18:28 AM 41.5480 -114.3233 245° Southwest 432 497 34,000  Level FlightAware ADS-B (KBTF)
Thu 11:18:39 AM 41.5385 -114.3495 245° Southwest 436 502 34,000  Level FlightAware ADS-B (KBOI)
Thu 11:19:04 AM 41.5165 -114.4106 244° Southwest 440 506 34,000  Level FlightAware ADS-B
Thu 11:19:16 AM 41.5067 -114.4377 245° Southwest 440 506 34,000  Level FlightAware ADS-B (KBOI)
Thu 11:19:39 AM 41.4863 -114.4937 245° Southwest 442 509 34,000  Level FlightAware ADS-B (KBOI)
Thu 11:20:03 AM 41.4634 -114.5571 244° Southwest 444 511 34,000  Level FlightAware ADS-B
Thu 11:20:44 AM 41.4271 -114.6573 244° Southwest 446 513 34,000  Level FlightAware ADS-B
Thu 11:21:16 AM 41.3996 -114.7327 245° Southwest 447 514 34,000  Level FlightAware ADS-B (KBOI)
Thu 11:21:28 AM 41.3872 -114.7666 244° Southwest 450 518 34,000  Level FlightAware ADS-B (KBTF)
Thu 11:21:45 AM 41.3716 -114.8091 245° Southwest 450 518 34,000  Level FlightAware ADS-B (KBOI)
Thu 11:22:08 AM 41.3513 -114.8647 244° Southwest 452 520 34,000  Level FlightAware ADS-B (KBTF)
Thu 11:22:16 AM 41.3473 -114.8757 245° Southwest 452 520 34,000  Level FlightAware ADS-B (KBOI)
Thu 11:22:46 AM 41.3208 -114.9483 244° Southwest 453 521 34,000  Level FlightAware ADS-B (KBOI)
Thu 11:22:48 AM 41.3148 -114.9646 245° Southwest 451 519 34,000  Level FlightAware ADS-B (KBTF)
Thu 11:23:16 AM 41.2924 -115.0252 244° Southwest 454 522 34,000  Level FlightAware ADS-B (KBOI)
Thu 11:23:46 AM 41.2605 -115.1115 244° Southwest 454 522 34,000  Level FlightAware ADS-B (KBOI)
Thu 11:24:40 AM 41.2111 -115.2440 245° Southwest 451 519 34,000  Level FlightAware ADS-B
Thu 11:25:45 AM 41.1535 -115.4006 244° Southwest 453 521 34,000  Level FlightAware ADS-B (KBOI)
Thu 11:27:11 AM 41.0851 -115.6246 248° West 451 519 34,000  Level FlightAware ADS-B (KBOI)
Thu 11:27:42 AM 41.0601 -115.7058 248° West 450 518 34,000  Level FlightAware ADS-B (KBOI)
Thu 11:28:10 AM 41.0412 -115.7667 248° West 450 518 34,000  Level FlightAware ADS-B (KBOI)
Thu 11:28:45 AM 41.0125 -115.8550 248° West 450 518 34,000  Level Oakland Center
Thu 11:29:46 AM 40.9653 -116.0089 248° West 450 518 34,000  Level Oakland Center
Thu 11:30:16 AM 40.9481 -116.0703 250° West 451 519 34,000  Level Salt Lake Center
Thu 11:31:18 AM 40.8997 -116.2242 247° West 453 521 34,000  Level Salt Lake Center
Thu 11:32:20 AM 40.8397 -116.4089 247° West 453 521 34,000  Level Salt Lake Center
Thu 11:33:22 AM 40.7925 -116.5628 248° West 453 521 34,000  Level Salt Lake Center
Thu 11:39:49 AM 40.4633 -117.5734 247° West 464 534 34,000  Level FlightAware ADS-B
Thu 11:40:29 AM 40.4294 -117.6757 247° West 464 534 34,000  Level FlightAware ADS-B
Thu 11:41:20 AM 40.3851 -117.8089 246° West 465 535 34,000  Level FlightAware ADS-B
Thu 11:42:11 AM 40.3418 -117.9385 246° West 465 535 34,000  Level FlightAware ADS-B
Thu 11:42:56 AM 40.3033 -118.0561 249° West 462 532 34,000  Level FlightAware ADS-B
Thu 11:43:49 AM 40.2639 -118.1931 249° West 461 531 34,000  Level FlightAware ADS-B
Thu 11:44:29 AM 40.2338 -118.2971 249° West 462 532 34,000  Level FlightAware ADS-B
Thu 11:45:41 AM 40.1786 -118.4858 249° West 461 531 34,000  Level FlightAware ADS-B
Thu 11:46:25 AM 40.1462 -118.5967 249° West 462 532 34,000  Level FlightAware ADS-B
Thu 11:47:05 AM 40.1147 -118.7037 249° West 462 532 34,000  Level FlightAware ADS-B
Thu 11:47:53 AM 40.0781 -118.8273 249° West 462 532 34,000  Level FlightAware ADS-B
Thu 11:48:33 AM 40.0471 -118.9315 249° West 463 533 34,000  Level FlightAware ADS-B
Thu 11:49:13 AM 40.0166 -119.0336 249° West 464 534 34,000  Level FlightAware ADS-B
Thu 11:49:53 AM 39.9851 -119.1388 249° West 464 534 34,000  Level FlightAware ADS-B
Thu 11:50:35 AM 39.9535 -119.2438 249° West 465 535 34,000  Level FlightAware ADS-B
Thu 11:51:15 AM 39.9207 -119.3528 249° West 465 535 34,000  Level FlightAware ADS-B
Thu 11:52:07 AM 39.8823 -119.4794 248° West 466 536 34,000  Level FlightAware ADS-B
Thu 11:52:48 AM 39.8477 -119.5930 248° West 466 536 34,000  Level FlightAware ADS-B
Thu 11:53:28 AM 39.8157 -119.6975 248° West 467 537 34,000  Level FlightAware ADS-B
Thu 11:54:08 AM 39.7841 -119.8005 248° West 467 537 34,000  Level FlightAware ADS-B
Thu 11:54:48 AM 39.7528 -119.9024 248° West 466 536 34,000  Level FlightAware ADS-B
Thu 11:55:28 AM 39.7234 -119.9977 248° West 467 537 34,000  Level FlightAware ADS-B
Thu 11:56:08 AM 39.6876 -120.1125 248° West 467 537 34,000  Level FlightAware ADS-B
Thu 11:56:48 AM 39.6551 -120.2172 248° West 467 537 34,000  Level FlightAware ADS-B
Thu 11:57:21 AM 39.6282 -120.3034 248° West 466 536 34,000  Level FlightAware ADS-B
Thu 11:58:07 AM 39.5913 -120.4207 248° West 467 537 34,000  Level FlightAware ADS-B
Thu 11:58:48 AM 39.5594 -120.5219 248° West 467 537 34,000  Level FlightAware ADS-B
Thu 11:59:23 AM 39.5291 -120.6180 248° West 466 536 34,000  Level FlightAware ADS-B
Thu 12:00:03 PM 39.4966 -120.7203 248° West 465 535 34,000  Level FlightAware ADS-B
Thu 12:00:48 PM 39.4608 -120.8325 248° West 465 535 34,000  Level FlightAware ADS-B
Thu 12:01:25 PM 39.4226 -120.9284 236° Southwest 476 548 34,000  Level FlightAware ADS-B
Thu 12:02:01 PM 39.3729 -121.0075 229° Southwest 483 556 34,000  Level FlightAware ADS-B
Thu 12:02:47 PM 39.3048 -121.1083 229° Southwest 483 556 34,000  Level FlightAware ADS-B
Thu 12:03:28 PM 39.2446 -121.1971 229° Southwest 483 556 34,000  Level FlightAware ADS-B
Thu 12:04:05 PM 39.1916 -121.2752 229° Southwest 483 556 34,000  Level FlightAware ADS-B
Thu 12:04:46 PM 39.1299 -121.3657 229° Southwest 484 557 34,000  Level FlightAware ADS-B
Thu 12:05:28 PM 39.0734 -121.4481 229° Southwest 484 557 34,000  Level FlightAware ADS-B
Thu 12:06:05 PM 39.0134 -121.5354 229° Southwest 484 557 34,000  Level FlightAware ADS-B
Thu 12:06:48 PM 38.9513 -121.6261 229° Southwest 484 557 34,000  Level FlightAware ADS-B
Thu 12:07:26 PM 38.8932 -121.7104 228° Southwest 484 557 34,000  Level FlightAware ADS-B
Thu 12:08:08 PM 38.8329 -121.7975 229° Southwest 483 556 34,000 -258 Level FlightAware ADS-B
Thu 12:08:59 PM 38.7559 -121.9087 229° Southwest 481 554 33,600 -673 Descending FlightAware ADS-B
Thu 12:09:46 PM 38.6883 -122.0058 228° Southwest 484 557 32,900 -1,432 Descending FlightAware ADS-B
Thu 12:10:27 PM 38.6303 -122.0888 229° Southwest 486 559 31,500 -2,775 Descending FlightAware ADS-B
Thu 12:11:06 PM 38.5697 -122.1758 228° Southwest 492 566 29,200 -3,000 Descending FlightAware ADS-B
Thu 12:11:47 PM 38.5050 -122.2682 228° Southwest 480 552 27,500 -2,341 Descending FlightAware ADS-B
Thu 12:12:28 PM 38.4553 -122.3387 228° Southwest 467 537 26,000 -2,222 Descending FlightAware ADS-B
Thu 12:13:08 PM 38.3882 -122.4339 228° Southwest 455 524 24,500 -2,535 Descending FlightAware ADS-B
Thu 12:13:39 PM 38.3451 -122.4948 228° Southwest 443 510 23,000 -2,229 Descending FlightAware ADS-B
Thu 12:14:18 PM 38.3041 -122.5525 228° Southwest 438 504 21,900 -1,913 Descending FlightAware ADS-B
Thu 12:14:48 PM 38.2520 -122.6258 228° Southwest 428 493 20,800 -2,233 Descending FlightAware ADS-B
Thu 12:15:44 PM 38.1810 -122.7262 228° Southwest 412 474 18,700 -2,453 Descending FlightAware ADS-B
Thu 12:17:05 PM 38.0583 -122.8221 174° South 396 456 15,200 -1,878 Descending FlightAware ADS-B
Thu 12:19:50 PM 37.8320 -122.6010 140° Southeast 359 413 11,000 -1,178 Descending FlightAware ADS-B
Thu 12:20:39 PM 37.7700 -122.5340 140° Southeast 361 415 11,000  Level FlightAware ADS-B
Thu 12:21:12 PM 37.7289 -122.4904 140° Southeast 346 398 11,000  Level FlightAware ADS-B
Thu 12:21:21 PM 37.7178 -122.4790 140° Southeast 336 387 11,000 -136 Level FlightAware ADS-B
Thu 12:21:56 PM 37.6798 -122.4377 140° Southeast 297 342 10,900 -146 Descending FlightAware ADS-B
Thu 12:22:02 PM 37.6736 -122.4310 140° Southeast 293 337 10,900 182 Level FlightAware ADS-B
Thu 12:22:29 PM 37.6466 -122.4020 140° Southeast 265 305 11,000 111 Climbing FlightAware ADS-B
Thu 12:22:56 PM 37.6227 -122.3771 140° Southeast 260 299 11,000  Level FlightAware ADS-B
Thu 12:23:00 PM 37.6182 -122.3720 140° Southeast 258 297 11,000  Level FlightAware ADS-B
Thu 12:23:27 PM 37.5917 -122.3500 155° Southeast 256 295 11,000  Level FlightAware ADS-B
Thu 12:23:39 PM 37.5790 -122.3430 155° Southeast 257 296 11,000 -200 Level FlightAware ADS-B
Thu 12:23:57 PM 37.5591 -122.3320 155° Southeast 255 293 10,900 -1,043 Descending FlightAware ADS-B
Thu 12:24:25 PM 37.5294 -122.3150 156° South 257 296 10,200 -1,256 Descending FlightAware ADS-B
Thu 12:24:40 PM 37.5130 -122.3050 156° South 252 290 10,000 -1,875 Descending FlightAware ADS-B
Thu 12:24:41 PM 37.5156 -122.3067 156° South 252 290 9,700 -1,200 Descending FlightAware ADS-B
Thu 12:24:55 PM 37.4974 -122.2960 155° Southeast 245 282 9,700 -889 Level FlightAware ADS-B
Thu 12:25:08 PM 37.4840 -122.2880 154° Southeast 240 276 9,300 -1,667 Descending FlightAware ADS-B
Thu 12:25:13 PM 37.4793 -122.2850 148° Southeast 239 275 9,200 -1,800 Descending FlightAware ADS-B
Thu 12:25:18 PM 37.4756 -122.2810 139° Southeast 238 274 9,000 -1,800 Descending FlightAware ADS-B
Thu 12:25:23 PM 37.4724 -122.2750 130° Southeast 238 274 8,900 -1,333 Descending FlightAware ADS-B
Thu 12:25:27 PM 37.4701 -122.2700 120° Southeast 239 275 8,800 -1,714 Descending FlightAware ADS-B
Thu 12:25:30 PM 37.4684 -122.2660 116° Southeast 237 273 8,700 -1,875 Descending FlightAware ADS-B
Thu 12:25:43 PM 37.4626 -122.2490 113° Southeast 236 272 8,300 -1,929 Descending FlightAware ADS-B
Thu 12:25:58 PM 37.4563 -122.2310 114° Southeast 236 272 7,800 -2,000 Descending FlightAware ADS-B
Thu 12:26:13 PM 37.4500 -122.2130 113° Southeast 235 270 7,300 -2,000 Descending FlightAware ADS-B
Thu 12:26:25 PM 37.4448 -122.1970 112° Southeast 236 272 6,900 -1,875 Descending FlightAware ADS-B
Thu 12:26:29 PM 37.4435 -122.1930 109° East 237 273 6,800 -1,714 Descending FlightAware ADS-B
Thu 12:26:32 PM 37.4428 -122.1880 103° East 238 274 6,700 -2,000 Descending FlightAware ADS-B
Thu 12:26:35 PM 37.4426 -122.1830 94° East 239 275 6,600 -1,500 Descending FlightAware ADS-B
Thu 12:26:40 PM 37.4431 -122.1770 87° East 239 275 6,500 -1,800 Descending FlightAware ADS-B
Thu 12:26:45 PM 37.4447 -122.1710 75° East 240 276 6,300 -2,000 Descending FlightAware ADS-B
Thu 12:26:49 PM 37.4467 -122.1660 64° Northeast 240 276 6,200 -1,500 Descending FlightAware ADS-B
Thu 12:26:53 PM 37.4491 -122.1610 57° Northeast 240 276 6,100 -1,500 Descending FlightAware ADS-B
Thu 12:26:57 PM 37.4525 -122.1570 47° Northeast 237 273 6,000 -750 Descending FlightAware ADS-B
Thu 12:27:01 PM 37.4553 -122.1540 40° Northeast 234 269 6,000 -857 Level FlightAware ADS-B
Thu 12:27:04 PM 37.4585 -122.1510 33° Northeast 230 265 5,900 -1,500 Descending FlightAware ADS-B
Thu 12:27:09 PM 37.4638 -122.1490 21° North 224 258 5,800 -600 Descending FlightAware ADS-B
Thu 12:27:14 PM 37.4687 -122.1470 16° North 220 253 5,800 -1,000 Level FlightAware ADS-B
Thu 12:27:15 PM 37.4692 -122.1468 17° North 221 254 5,700 -1,200 Descending FlightAware ADS-B
Thu 12:27:29 PM 37.4831 -122.1420 15° North 211 243 5,500 -900 Descending FlightAware ADS-B
Thu 12:27:35 PM 37.4885 -122.1410 North 209 241 5,400 -1,200 Descending FlightAware ADS-B
Thu 12:27:39 PM 37.4922 -122.1410 North 208 239 5,300 -1,714 Descending FlightAware ADS-B
Thu 12:27:42 PM 37.4954 -122.1410 353° North 205 236 5,200 -857 Descending FlightAware ADS-B
Thu 12:27:46 PM 37.4988 -122.1430 344° North 200 230 5,200 -750 Level FlightAware ADS-B
Thu 12:27:50 PM 37.5022 -122.1440 339° North 197 227 5,100 -1,800 Descending FlightAware ADS-B
Thu 12:27:56 PM 37.5073 -122.1470 337° Northwest 194 223 4,900 -1,800 Descending FlightAware ADS-B
Thu 12:28:00 PM 37.5105 -122.1490 334° Northwest 193 222 4,800 -1,500 Descending FlightAware ADS-B
Thu 12:28:04 PM 37.5136 -122.1510 331° Northwest 193 222 4,700 -1,500 Descending FlightAware ADS-B
Thu 12:28:16 PM 37.5226 -122.1580 328° Northwest 191 220 4,400 -1,385 Descending FlightAware ADS-B
Thu 12:28:17 PM 37.5230 -122.1583 328° Northwest 191 220 4,400 -1,500 Level FlightAware ADS-B
Thu 12:28:20 PM 37.5255 -122.1610 324° Northwest 190 219 4,300 -1,714 Descending FlightAware ADS-B
Thu 12:28:24 PM 37.5278 -122.1630 318° Northwest 191 220 4,200 -2,250 Descending FlightAware ADS-B
Thu 12:28:28 PM 37.5303 -122.1670 313° West 192 221 4,000 -2,667 Descending FlightAware ADS-B
Thu 12:28:33 PM 37.5327 -122.1710 306° West 193 222 3,800 -2,250 Descending FlightAware ADS-B
Thu 12:28:36 PM 37.5343 -122.1740 303° West 194 223 3,700 -2,000 Descending FlightAware ADS-B
Thu 12:28:39 PM 37.5349 -122.1754 301° West 194 223 3,600 -1,714 Descending FlightAware ADS-B
Thu 12:28:43 PM 37.5375 -122.1810 300° West 194 223 3,500 -1,600 Descending FlightAware ADS-B
Thu 12:28:54 PM 37.5422 -122.1920 297° West 194 223 3,200 -1,778 Descending FlightAware ADS-B
Thu 12:29:10 PM 37.5484 -122.2080 297° West 194 223 2,700 -2,087 Descending FlightAware ADS-B
Thu 12:29:17 PM 37.5446 -122.1985 298° West 196 226 2,400 -1,846 Descending FlightAware ADS-B
Thu 12:29:23 PM 37.5540 -122.2210 297° West 195 224 2,300 -857 Descending FlightAware ADS-B
Thu 12:29:38 PM 37.5603 -122.2360 298° West 191 220 2,100 -923 Descending FlightAware ADS-B
Thu 12:29:49 PM 37.5603 -122.2364 298° West 192 221 1,900 -1,200 Descending FlightAware ADS-B
Thu 12:29:53 PM 37.5665 -122.2510 298° West 183 211 1,800 -1,200 Descending FlightAware ADS-B
Thu 12:30:09 PM 37.5724 -122.2650 298° West 170 196 1,500 -968 Descending FlightAware ADS-B
Thu 12:30:24 PM 37.5777 -122.2770 299° West 155 178 1,300 -692 Descending FlightAware ADS-B
Thu 12:30:35 PM 37.5815 -122.2860 298° West 154 177 1,200 -621 Descending FlightAware ADS-B
Thu 12:30:53 PM 37.5873 -122.3000 297° West 154 177 1,000 -727 Descending FlightAware ADS-B
Thu 12:31:08 PM 37.5924 -122.3120 297° West 154 177 800 -938 Descending FlightAware ADS-B
Thu 12:31:25 PM 37.5981 -122.3260 298° West 152 175 500 -960 Descending FlightAware ADS-B
Thu 12:31:33 PM 37.6008 -122.3320 298° West 152 175 400 -545 Descending FlightAware ADS-B
Thu 12:31:47 PM 37.6053 -122.3430 298° West 151 174 300 -621 Descending FlightAware ADS-B
Thu 12:32:02 PM 37.6102 -122.3550 298° West 150 173 100 -800 Descending FlightAware ADS-B

Login

Don't have an account? Register now (free) for customized features, flight alerts, and more!